createdAt,value
2019-03-22T00:02:00.550Z,100753.34
2019-03-22T00:04:28.927Z,100750.87
2019-03-22T00:06:57.335Z,100754.47
2019-03-22T00:09:25.714Z,100750.67
2019-03-22T00:11:54.063Z,100745.68
2019-03-22T00:14:22.439Z,100749.54
2019-03-22T00:16:50.787Z,100752.28
2019-03-22T00:19:19.130Z,100749.36
2019-03-22T00:21:47.508Z,100750.20
2019-03-22T00:24:15.863Z,100748.75
2019-03-22T00:26:44.240Z,100748.05
2019-03-22T00:29:12.593Z,100745.81
2019-03-22T00:31:40.969Z,100739.68
2019-03-22T00:34:09.316Z,100735.96
2019-03-22T00:36:37.697Z,100740.48
2019-03-22T00:39:06.423Z,100738.70
2019-03-22T00:41:34.801Z,100739.49
2019-03-22T00:44:03.146Z,100734.12
2019-03-22T00:46:31.522Z,100729.44
2019-03-22T00:48:59.868Z,100728.66
2019-03-22T00:51:28.240Z,100729.55
2019-03-22T00:53:56.581Z,100726.66
2019-03-22T00:56:24.964Z,100724.81
2019-03-22T00:58:53.302Z,100718.54
2019-03-22T01:01:21.748Z,100718.11
2019-03-22T01:03:50.086Z,100718.70
2019-03-22T01:06:18.533Z,100719.63
2019-03-22T01:08:46.953Z,100712.61
2019-03-22T01:11:15.319Z,100704.27
2019-03-22T01:13:43.666Z,100710.55
2019-03-22T01:16:12.044Z,100708.57
2019-03-22T01:18:40.405Z,100705.05
2019-03-22T01:21:08.899Z,100707.27
2019-03-22T01:23:37.242Z,100707.70
2019-03-22T01:26:05.791Z,100699.90
2019-03-22T01:28:34.138Z,100696.02
2019-03-22T01:31:02.509Z,100701.77
2019-03-22T01:33:30.861Z,100697.03
2019-03-22T01:35:59.239Z,100697.86
2019-03-22T01:38:27.588Z,100693.63
2019-03-22T01:40:55.977Z,100693.02
2019-03-22T01:43:24.714Z,100689.86
2019-03-22T01:45:53.093Z,100684.70
2019-03-22T01:48:21.445Z,100687.60
2019-03-22T01:50:49.830Z,100681.09
2019-03-22T01:53:18.182Z,100680.80
2019-03-22T01:55:46.558Z,100687.91
2019-03-22T01:58:14.903Z,100691.05
2019-03-22T02:00:43.277Z,100687.25
2019-03-22T02:03:11.626Z,100686.60
2019-03-22T02:05:40.074Z,100686.25
2019-03-22T02:08:08.422Z,100687.10
2019-03-22T02:10:36.798Z,100694.05
2019-03-22T02:13:05.147Z,100687.31
2019-03-22T02:15:33.601Z,100688.24
2019-03-22T02:18:01.942Z,100688.20
2019-03-22T02:20:30.382Z,100685.89
2019-03-22T02:22:58.726Z,100679.00
2019-03-22T02:25:27.102Z,100683.06
2019-03-22T02:28:03.696Z,100692.95
2019-03-22T02:30:25.621Z,100684.64
2019-03-22T02:32:53.976Z,100688.00
2019-03-22T02:35:29.005Z,100680.09
2019-03-22T02:37:52.480Z,100688.77
2019-03-22T02:40:20.857Z,100687.41
2019-03-22T02:42:49.267Z,100685.49
2019-03-22T02:45:17.678Z,100685.21
2019-03-22T02:47:46.146Z,100686.34
2019-03-22T02:50:19.798Z,100687.39
2019-03-22T02:52:45.350Z,100686.33
2019-03-22T02:55:14.344Z,100686.78
2019-03-22T02:57:42.698Z,100685.28
2019-03-22T03:00:13.375Z,100682.55
2019-03-22T03:02:41.730Z,100679.67
2019-03-22T03:05:10.955Z,100679.66
2019-03-22T03:07:39.370Z,100685.86
2019-03-22T03:10:10.384Z,100679.18
2019-03-22T03:12:38.742Z,100681.34
2019-03-22T03:15:10.602Z,100684.02
2019-03-22T03:17:39.058Z,100680.04
2019-03-22T03:20:10.699Z,100683.03
2019-03-22T03:22:39.031Z,100684.69
2019-03-22T03:25:08.323Z,100683.90
2019-03-22T03:27:37.058Z,100683.69
2019-03-22T03:30:08.650Z,100683.41
2019-03-22T03:32:37.030Z,100684.02
2019-03-22T03:35:07.614Z,100677.29
2019-03-22T03:37:35.961Z,100681.67
2019-03-22T03:40:07.720Z,100678.47
2019-03-22T03:42:36.093Z,100676.18
2019-03-22T03:45:06.987Z,100673.17
2019-03-22T03:47:35.433Z,100669.39
2019-03-22T03:50:07.675Z,100673.94
2019-03-22T03:52:39.361Z,100668.20
2019-03-22T03:55:07.789Z,100665.25
2019-03-22T03:57:36.174Z,100670.27
2019-03-22T04:00:07.120Z,100669.23
2019-03-22T04:02:35.505Z,100671.34
2019-03-22T04:05:04.482Z,100674.86
2019-03-22T04:07:32.866Z,100675.68
2019-03-22T04:10:01.230Z,100676.41
2019-03-22T04:12:29.592Z,100676.22
2019-03-22T04:14:57.946Z,100675.45
2019-03-22T04:17:26.332Z,100675.28
2019-03-22T04:19:54.670Z,100671.02
2019-03-22T04:22:23.039Z,100671.14
2019-03-22T04:24:51.461Z,100675.95
2019-03-22T04:27:19.902Z,100672.47
2019-03-22T04:29:48.247Z,100674.53
2019-03-22T04:32:16.650Z,100678.89
2019-03-22T04:34:45.003Z,100677.92
2019-03-22T04:37:13.389Z,100668.96
2019-03-22T04:39:41.746Z,100673.27
2019-03-22T04:42:10.306Z,100674.39
2019-03-22T04:44:38.645Z,100675.95
2019-03-22T04:47:07.600Z,100669.59
2019-03-22T04:49:36.914Z,100673.07
2019-03-22T04:52:05.944Z,100673.75
2019-03-22T04:54:35.552Z,100681.02
2019-03-22T04:57:05.411Z,100680.91
2019-03-22T04:59:34.033Z,100681.04
2019-03-22T05:02:03.077Z,100680.16
2019-03-22T05:04:31.492Z,100680.19
2019-03-22T05:07:00.041Z,100680.03
2019-03-22T05:09:29.956Z,100684.05
2019-03-22T05:12:00.141Z,100681.17
2019-03-22T05:14:29.654Z,100683.11
2019-03-22T05:16:58.405Z,100678.45
2019-03-22T05:19:28.624Z,100672.72
2019-03-22T05:21:57.642Z,100679.34
2019-03-22T05:24:26.329Z,100687.30
2019-03-22T05:26:56.380Z,100685.29
2019-03-22T05:29:30.478Z,100687.17
2019-03-22T05:31:58.283Z,100691.02
2019-03-22T05:34:29.231Z,100688.87
2019-03-22T05:36:57.581Z,100695.47
2019-03-22T05:39:25.963Z,100689.88
2019-03-22T05:41:54.313Z,100692.22
2019-03-22T05:44:22.697Z,100687.53
2019-03-22T05:46:51.038Z,100690.23
2019-03-22T05:49:19.418Z,100697.07
2019-03-22T05:51:47.773Z,100696.90
2019-03-22T05:54:16.223Z,100690.08
2019-03-22T05:56:45.246Z,100688.70
2019-03-22T05:59:13.637Z,100699.33
2019-03-22T06:01:45.213Z,100697.09
2019-03-22T06:04:12.932Z,100694.30
2019-03-22T06:06:41.277Z,100698.19
2019-03-22T06:09:10.128Z,100699.92
2019-03-22T06:11:38.480Z,100705.69
2019-03-22T06:14:06.944Z,100703.38
2019-03-22T06:16:36.852Z,100702.47
2019-03-22T06:19:05.369Z,100702.83
2019-03-22T06:21:33.720Z,100704.13
2019-03-22T06:24:02.100Z,100702.81
2019-03-22T06:26:30.522Z,100704.99
2019-03-22T06:28:58.901Z,100698.88
2019-03-22T06:31:27.255Z,100702.30
2019-03-22T06:33:55.634Z,100698.37
2019-03-22T06:36:24.289Z,100701.31
2019-03-22T06:38:52.827Z,100703.41
2019-03-22T06:41:21.399Z,100707.02
2019-03-22T06:43:49.849Z,100704.02
2019-03-22T06:46:18.197Z,100706.33
2019-03-22T06:48:46.656Z,100711.34
2019-03-22T06:51:15.006Z,100713.59
2019-03-22T06:53:43.392Z,100709.34
2019-03-22T06:56:11.742Z,100707.16
2019-03-22T06:58:40.127Z,100714.55
2019-03-22T07:01:08.471Z,100710.80
2019-03-22T07:03:36.850Z,100704.55
2019-03-22T07:06:05.288Z,100716.71
2019-03-22T07:08:33.668Z,100719.23
2019-03-22T07:11:02.014Z,100720.55
2019-03-22T07:13:30.391Z,100715.68
2019-03-22T07:15:58.746Z,100718.67
2019-03-22T07:18:27.127Z,100715.00
2019-03-22T07:20:55.488Z,100708.92
2019-03-22T07:23:23.943Z,100710.01
2019-03-22T07:25:52.292Z,100705.88
2019-03-22T07:28:20.670Z,100699.56
2019-03-22T07:30:49.023Z,100703.20
2019-03-22T07:33:17.412Z,100707.77
2019-03-22T07:35:45.762Z,100704.27
2019-03-22T07:38:14.158Z,100704.47
2019-03-22T07:40:42.503Z,100703.75
2019-03-22T07:43:10.960Z,100696.30
2019-03-22T07:45:39.382Z,100702.13
2019-03-22T07:48:07.768Z,100696.14
2019-03-22T07:50:36.116Z,100705.15
2019-03-22T07:53:04.577Z,100702.35
2019-03-22T07:55:32.929Z,100701.41
2019-03-22T07:58:01.290Z,100701.17
2019-03-22T08:00:31.154Z,100702.74
2019-03-22T08:02:59.743Z,100701.41
2019-03-22T08:05:28.138Z,100699.58
2019-03-22T08:07:56.488Z,100693.13
2019-03-22T08:10:24.881Z,100696.77
2019-03-22T08:12:53.326Z,100696.56
2019-03-22T08:15:27.133Z,100702.13
2019-03-22T08:17:57.187Z,100703.19
2019-03-22T08:20:25.822Z,100699.58
2019-03-22T08:22:54.214Z,100702.66
2019-03-22T08:25:22.561Z,100702.47
2019-03-22T08:27:50.913Z,100701.05
2019-03-22T08:30:19.276Z,100694.91
2019-03-22T08:32:50.351Z,100701.74
2019-03-22T08:35:17.725Z,100698.42
2019-03-22T08:37:52.625Z,100697.42
2019-03-22T08:40:16.258Z,100701.45
2019-03-22T08:42:44.599Z,100696.55
2019-03-22T08:45:13.152Z,100698.66
2019-03-22T08:47:41.809Z,100691.91
2019-03-22T08:50:10.444Z,100684.22
2019-03-22T08:52:38.798Z,100691.61
2019-03-22T08:55:07.328Z,100686.30
2019-03-22T08:57:35.696Z,100686.89
2019-03-22T09:00:06.909Z,100685.23
2019-03-22T09:02:35.280Z,100682.50
2019-03-22T09:05:04.780Z,100677.22
2019-03-22T09:07:33.154Z,100679.88
2019-03-22T09:10:01.547Z,100680.81
2019-03-22T09:12:29.952Z,100677.69
2019-03-22T09:14:58.360Z,100676.30
2019-03-22T09:17:26.663Z,100684.94
2019-03-22T09:19:55.150Z,100675.05
2019-03-22T09:22:23.466Z,100679.14
2019-03-22T09:24:51.860Z,100670.83
2019-03-22T09:27:20.212Z,100667.98
2019-03-22T09:29:48.884Z,100663.91
2019-03-22T09:32:17.230Z,100656.66
2019-03-22T09:34:45.698Z,100656.66
2019-03-22T09:37:14.032Z,100658.38
2019-03-22T09:39:42.413Z,100649.34
2019-03-22T09:42:10.913Z,100645.14
2019-03-22T09:44:46.346Z,100644.48
2019-03-22T09:47:09.501Z,100639.02
2019-03-22T09:49:37.969Z,100643.17
2019-03-22T09:52:06.386Z,100642.08
2019-03-22T09:54:35.139Z,100639.36
2019-03-22T09:57:03.923Z,100637.66
2019-03-22T09:59:32.387Z,100629.08
2019-03-22T10:02:00.798Z,100631.62
2019-03-22T10:04:29.210Z,100629.42
2019-03-22T10:06:57.581Z,100624.52
2019-03-22T10:09:25.988Z,100628.57
2019-03-22T10:11:54.389Z,100631.97
2019-03-22T10:14:24.883Z,100626.77
2019-03-22T10:16:53.287Z,100626.87
2019-03-22T10:19:21.661Z,100624.94
2019-03-22T10:21:50.128Z,100621.47
2019-03-22T10:24:19.150Z,100620.73
2019-03-22T10:26:47.573Z,100615.64
2019-03-22T10:29:15.957Z,100612.42
2019-03-22T10:31:44.301Z,100614.61
2019-03-22T10:34:12.649Z,100607.52
2019-03-22T10:36:41.027Z,100604.66
2019-03-22T10:39:09.600Z,100605.70
2019-03-22T10:41:38.138Z,100601.27
2019-03-22T10:44:06.564Z,100600.30
2019-03-22T10:46:34.911Z,100599.30
2019-03-22T10:49:03.267Z,100599.64
2019-03-22T10:51:32.562Z,100597.20
2019-03-22T10:54:00.949Z,100595.42
2019-03-22T10:56:29.302Z,100592.35
2019-03-22T10:58:57.642Z,100587.66
2019-03-22T11:01:26.105Z,100584.98
2019-03-22T11:03:54.480Z,100586.37
2019-03-22T11:06:26.315Z,100582.28
2019-03-22T11:08:53.537Z,100585.56
2019-03-22T11:11:21.916Z,100588.20
2019-03-22T11:13:50.276Z,100584.16
2019-03-22T11:16:18.729Z,100585.06
2019-03-22T11:18:47.081Z,100581.09
2019-03-22T11:21:15.463Z,100583.59
2019-03-22T11:23:43.805Z,100582.09
2019-03-22T11:26:12.712Z,100575.07
2019-03-22T11:28:41.061Z,100571.67
2019-03-22T11:31:09.449Z,100575.14
2019-03-22T11:33:37.869Z,100577.00
2019-03-22T11:36:06.249Z,100570.61
2019-03-22T11:38:34.598Z,100568.69
2019-03-22T11:41:02.981Z,100568.50
2019-03-22T11:43:31.339Z,100562.03
2019-03-22T11:45:59.719Z,100558.42
2019-03-22T11:48:28.116Z,100563.11
2019-03-22T11:50:56.523Z,100555.91
2019-03-22T11:53:24.875Z,100554.67
2019-03-22T11:55:53.258Z,100556.78
2019-03-22T11:58:21.605Z,100551.55
2019-03-22T12:00:50.320Z,100556.43
2019-03-22T12:03:18.665Z,100552.47
2019-03-22T12:05:47.195Z,100553.03
2019-03-22T12:08:15.611Z,100545.81
2019-03-22T12:10:43.995Z,100541.23
2019-03-22T12:13:12.332Z,100545.54
2019-03-22T12:15:40.714Z,100542.81
2019-03-22T12:18:09.061Z,100543.06
2019-03-22T12:20:37.441Z,100541.11
2019-03-22T12:23:06.408Z,100531.91
2019-03-22T12:25:34.786Z,100527.33
2019-03-22T12:28:05.000Z,100521.27
2019-03-22T12:30:33.452Z,100520.02
2019-03-22T12:33:01.879Z,100513.53
2019-03-22T12:35:30.322Z,100508.30
2019-03-22T12:37:59.579Z,100509.87
2019-03-22T12:40:28.611Z,100510.48
2019-03-22T12:42:57.876Z,100500.80
2019-03-22T12:45:33.514Z,100499.27
2019-03-22T12:48:01.937Z,100500.14
2019-03-22T12:50:31.151Z,100496.56
2019-03-22T12:52:59.750Z,100492.58
2019-03-22T12:55:28.440Z,100487.34
2019-03-22T12:57:59.366Z,100489.80
2019-03-22T13:00:27.968Z,100485.56
2019-03-22T13:02:56.394Z,100486.91
2019-03-22T13:05:25.402Z,100481.31
2019-03-22T13:07:53.832Z,100477.33
2019-03-22T13:10:23.847Z,100473.11
2019-03-22T13:12:53.243Z,100469.62
2019-03-22T13:15:22.745Z,100469.50
2019-03-22T13:17:53.119Z,100466.77
2019-03-22T13:20:22.098Z,100457.85
2019-03-22T13:22:55.009Z,100459.36
2019-03-22T13:25:23.538Z,100457.37
2019-03-22T13:27:51.893Z,100466.17
2019-03-22T13:30:46.139Z,100462.14
2019-03-22T13:33:16.284Z,100460.74
2019-03-22T13:35:45.542Z,100463.66
2019-03-22T13:38:14.804Z,100458.79
2019-03-22T13:40:45.006Z,100464.17
2019-03-22T13:43:14.258Z,100460.70
2019-03-22T13:45:43.422Z,100462.68
2019-03-22T13:48:12.762Z,100453.06
2019-03-22T13:50:42.096Z,100450.01
2019-03-22T13:53:11.569Z,100438.80
2019-03-22T13:55:42.609Z,100439.28
2019-03-22T13:58:13.110Z,100441.31
2019-03-22T14:00:42.826Z,100433.84
2019-03-22T14:03:12.674Z,100433.56
2019-03-22T14:05:41.446Z,100427.48
2019-03-22T14:08:10.211Z,100429.03
2019-03-22T14:10:39.301Z,100430.42
2019-03-22T14:13:10.463Z,100429.28
2019-03-22T14:15:41.728Z,100424.39
2019-03-22T14:18:10.649Z,100426.31
2019-03-22T14:20:40.309Z,100418.91
2019-03-22T14:23:08.694Z,100416.53
2019-03-22T14:25:37.043Z,100410.69
2019-03-22T14:28:05.502Z,100411.80
2019-03-22T14:30:33.915Z,100399.28
2019-03-22T14:33:12.587Z,100401.54
2019-03-22T14:35:36.839Z,100396.27
2019-03-22T14:38:05.289Z,100402.78
2019-03-22T14:40:33.634Z,100396.53
2019-03-22T14:43:02.083Z,100398.25
2019-03-22T14:45:30.749Z,100396.27
2019-03-22T14:47:59.162Z,100396.55
2019-03-22T14:50:27.496Z,100402.13
2019-03-22T14:52:55.878Z,100400.91
2019-03-22T14:55:24.222Z,100403.20
2019-03-22T14:57:53.137Z,100400.77
2019-03-22T15:00:23.387Z,100394.61
2019-03-22T15:02:51.847Z,100394.38
2019-03-22T15:05:20.388Z,100395.23
2019-03-22T15:07:48.849Z,100392.52
2019-03-22T15:10:17.342Z,100389.63
2019-03-22T15:12:46.063Z,100388.33
2019-03-22T15:15:22.540Z,100381.45
2019-03-22T15:17:58.797Z,100380.61
2019-03-22T15:20:31.879Z,100379.52
2019-03-22T15:23:10.838Z,100379.17
2019-03-22T15:25:53.113Z,100378.58
2019-03-22T15:28:41.771Z,100373.52
2019-03-22T15:31:28.407Z,100374.60
2019-03-22T15:34:09.352Z,100376.99
2019-03-22T15:36:54.872Z,100369.95
2019-03-22T15:39:41.452Z,100363.92
2019-03-22T15:42:11.380Z,100367.77
2019-03-22T15:44:39.863Z,100362.80
2019-03-22T15:47:08.577Z,100357.74
2019-03-22T15:49:37.952Z,100358.30
2019-03-22T15:52:07.000Z,100354.22
2019-03-22T15:54:40.653Z,100355.45
2019-03-22T15:57:09.183Z,100356.25
2019-03-22T15:59:38.239Z,100356.67
2019-03-22T16:02:07.235Z,100355.03
2019-03-22T16:04:37.656Z,100354.83
2019-03-22T16:07:07.100Z,100347.97
2019-03-22T16:09:35.962Z,100354.31
2019-03-22T16:12:04.963Z,100348.39
2019-03-22T16:14:33.469Z,100350.88
2019-03-22T16:17:03.027Z,100353.53
2019-03-22T16:19:31.382Z,100353.86
2019-03-22T16:22:02.470Z,100347.59
2019-03-22T16:24:31.434Z,100357.27
2019-03-22T16:27:03.143Z,100348.95
2019-03-22T16:29:31.725Z,100350.19
2019-03-22T16:32:00.487Z,100353.67
2019-03-22T16:34:31.994Z,100354.41
2019-03-22T16:37:00.733Z,100346.72
2019-03-22T16:39:29.749Z,100352.69
2019-03-22T16:41:58.245Z,100356.08
2019-03-22T16:44:27.859Z,100349.66
2019-03-22T16:46:56.345Z,100351.25
2019-03-22T16:49:25.173Z,100348.89
2019-03-22T16:51:54.513Z,100352.37
2019-03-22T16:54:22.986Z,100347.25
2019-03-22T16:56:54.746Z,100328.84
2019-03-22T16:59:23.638Z,100339.66
2019-03-22T17:01:52.487Z,100346.11
2019-03-22T17:04:20.949Z,100346.22
2019-03-22T17:06:52.667Z,100344.30
2019-03-22T17:09:23.074Z,100351.60
2019-03-22T17:11:51.820Z,100350.60
2019-03-22T17:14:21.805Z,100356.77
2019-03-22T17:16:53.316Z,100356.18
2019-03-22T17:19:23.719Z,100359.33
2019-03-22T17:21:52.740Z,100358.31
2019-03-22T17:24:21.749Z,100353.29
2019-03-22T17:26:50.886Z,100363.77
2019-03-22T17:29:22.688Z,100366.20
2019-03-22T17:31:51.900Z,100365.92
2019-03-22T17:34:21.005Z,100364.80
2019-03-22T17:36:51.776Z,100367.44
2019-03-22T17:39:21.340Z,100367.97
2019-03-22T17:41:50.255Z,100368.92
2019-03-22T17:44:19.291Z,100376.19
2019-03-22T17:46:49.625Z,100377.18
2019-03-22T17:49:18.654Z,100384.16
2019-03-22T17:51:46.996Z,100388.22
2019-03-22T17:54:15.511Z,100387.83
2019-03-22T17:56:44.468Z,100387.53
2019-03-22T17:59:12.852Z,100397.42
2019-03-22T18:01:41.275Z,100382.38
2019-03-22T18:04:09.664Z,100388.25
2019-03-22T18:06:38.091Z,100392.84
2019-03-22T18:09:06.744Z,100389.89
2019-03-22T18:11:35.106Z,100393.88
2019-03-22T18:14:03.494Z,100390.03
2019-03-22T18:16:31.917Z,100391.47
2019-03-22T18:19:00.312Z,100399.06
2019-03-22T18:21:28.677Z,100396.45
2019-03-22T18:23:57.153Z,100394.39
2019-03-22T18:26:25.661Z,100393.77
2019-03-22T18:28:54.052Z,100396.05
2019-03-22T18:31:22.566Z,100401.77
2019-03-22T18:33:51.031Z,100401.91
2019-03-22T18:36:19.390Z,100402.69
2019-03-22T18:38:47.783Z,100405.14
2019-03-22T18:41:16.274Z,100406.90
2019-03-22T18:43:44.667Z,100407.30
2019-03-22T18:46:13.025Z,100410.22
2019-03-22T18:48:41.414Z,100411.46
2019-03-22T18:51:09.776Z,100409.11
2019-03-22T18:53:38.573Z,100410.02
2019-03-22T18:56:07.297Z,100406.96
2019-03-22T18:58:35.691Z,100408.12
2019-03-22T19:01:05.254Z,100406.95
2019-03-22T19:03:33.631Z,100409.94
2019-03-22T19:06:01.981Z,100416.66
2019-03-22T19:08:30.365Z,100414.84
2019-03-22T19:10:58.720Z,100416.23
2019-03-22T19:13:30.830Z,100416.37
2019-03-22T19:15:57.181Z,100407.14
2019-03-22T19:18:25.580Z,100413.13
2019-03-22T19:20:53.937Z,100412.52
2019-03-22T19:23:22.297Z,100410.33
2019-03-22T19:25:50.686Z,100413.22
2019-03-22T19:28:19.333Z,100419.51
2019-03-22T19:30:47.825Z,100416.70
2019-03-22T19:33:16.220Z,100423.35
2019-03-22T19:35:44.605Z,100415.95
2019-03-22T19:38:12.963Z,100420.55
2019-03-22T19:40:41.355Z,100420.89
2019-03-22T19:43:09.740Z,100416.36
2019-03-22T19:45:38.113Z,100427.05
2019-03-22T19:48:06.538Z,100424.70
2019-03-22T19:50:34.928Z,100423.48
2019-03-22T19:53:03.286Z,100431.03
2019-03-22T19:55:31.669Z,100430.67
2019-03-22T19:58:00.013Z,100436.31
2019-03-22T20:00:28.785Z,100439.05
2019-03-22T20:02:57.152Z,100438.00
2019-03-22T20:05:35.176Z,100439.11
2019-03-22T20:08:03.605Z,100431.97
2019-03-22T20:10:32.546Z,100436.44
2019-03-22T20:13:01.448Z,100440.42
2019-03-22T20:15:30.037Z,100444.01
2019-03-22T20:17:58.403Z,100447.50
2019-03-22T20:20:26.784Z,100442.94
2019-03-22T20:22:55.203Z,100440.86
2019-03-22T20:25:23.583Z,100442.20
2019-03-22T20:27:51.928Z,100445.78
2019-03-22T20:30:20.557Z,100451.70
2019-03-22T20:32:48.905Z,100454.58
2019-03-22T20:35:17.365Z,100455.75
2019-03-22T20:37:46.020Z,100447.89
2019-03-22T20:40:16.138Z,100449.94
2019-03-22T20:42:44.563Z,100451.44
2019-03-22T20:45:23.691Z,100452.97
2019-03-22T20:47:44.945Z,100450.06
2019-03-22T20:50:13.756Z,100448.34
2019-03-22T20:52:42.199Z,100448.92
2019-03-22T20:55:11.643Z,100444.31
2019-03-22T20:57:41.056Z,100450.55
2019-03-22T21:00:13.743Z,100454.67
2019-03-22T21:03:03.764Z,100446.20
2019-03-22T21:05:33.634Z,100446.25
2019-03-22T21:08:02.220Z,100453.78
2019-03-22T21:10:30.854Z,100455.05
2019-03-22T21:12:59.379Z,100456.67
2019-03-22T21:15:29.471Z,100458.40
2019-03-22T21:17:59.357Z,100453.75
2019-03-22T21:20:29.229Z,100455.37
2019-03-22T21:22:57.824Z,100458.09
2019-03-22T21:25:26.303Z,100459.91
2019-03-22T21:27:54.795Z,100461.09
2019-03-22T21:30:23.172Z,100461.17
2019-03-22T21:32:54.498Z,100455.30
2019-03-22T21:35:25.151Z,100458.75
2019-03-22T21:37:56.075Z,100452.72
2019-03-22T21:40:26.135Z,100453.28
2019-03-22T21:42:54.551Z,100449.55
2019-03-22T21:45:23.725Z,100451.58
2019-03-22T21:47:52.788Z,100458.48
2019-03-22T21:50:21.517Z,100455.22
2019-03-22T21:52:51.044Z,100454.42
2019-03-22T21:55:19.523Z,100445.51
2019-03-22T21:57:48.273Z,100450.08
2019-03-22T22:00:17.260Z,100454.27
2019-03-22T22:02:45.854Z,100460.34
2019-03-22T22:05:14.375Z,100462.45
2019-03-22T22:07:43.265Z,100454.79
2019-03-22T22:10:11.916Z,100456.14
2019-03-22T22:12:41.617Z,100454.98
2019-03-22T22:15:12.234Z,100455.31
2019-03-22T22:17:43.811Z,100454.70
2019-03-22T22:20:12.929Z,100450.18
2019-03-22T22:22:41.422Z,100457.42
2019-03-22T22:25:10.090Z,100447.98
2019-03-22T22:27:38.729Z,100452.97
2019-03-22T22:30:13.325Z,100454.55
2019-03-22T22:32:42.165Z,100451.63
2019-03-22T22:35:11.054Z,100457.08
2019-03-22T22:37:39.990Z,100448.08
2019-03-22T22:40:10.590Z,100445.11
2019-03-22T22:42:39.143Z,100451.47
2019-03-22T22:45:10.074Z,100450.53
2019-03-22T22:47:39.338Z,100447.37
2019-03-22T22:50:12.392Z,100449.95
2019-03-22T22:52:43.115Z,100446.46
2019-03-22T22:55:12.105Z,100448.89
2019-03-22T22:57:40.525Z,100446.45
2019-03-22T23:00:16.004Z,100450.58
2019-03-22T23:02:44.746Z,100452.77
2019-03-22T23:05:13.259Z,100449.70
2019-03-22T23:07:41.781Z,100445.20
2019-03-22T23:10:12.647Z,100447.29
2019-03-22T23:12:40.839Z,100446.66
2019-03-22T23:15:09.493Z,100446.87
2019-03-22T23:17:37.846Z,100443.72
2019-03-22T23:20:07.768Z,100447.13
2019-03-22T23:22:36.127Z,100445.83
2019-03-22T23:25:06.454Z,100450.16
2019-03-22T23:27:35.077Z,100448.75
2019-03-22T23:30:05.015Z,100442.00
2019-03-22T23:32:33.359Z,100445.30
2019-03-22T23:35:01.743Z,100446.48
2019-03-22T23:37:30.092Z,100441.06
2019-03-22T23:39:58.544Z,100443.22
2019-03-22T23:42:26.887Z,100440.22
2019-03-22T23:44:55.274Z,100439.94
2019-03-22T23:47:23.622Z,100438.70
2019-03-22T23:49:52.016Z,100446.70
2019-03-22T23:52:20.360Z,100443.13
2019-03-22T23:54:48.745Z,100443.38
2019-03-22T23:57:17.164Z,100440.81
2019-03-22T23:59:45.517Z,100435.86
